createdAt,value
2022-08-05T00:02:19.520Z,100.00
2022-08-05T00:04:46.980Z,100.00
2022-08-05T00:07:58.821Z,100.00
2022-08-05T00:10:08.494Z,100.00
2022-08-05T00:12:35.591Z,100.00
2022-08-05T00:15:55.410Z,100.00
2022-08-05T00:18:08.289Z,100.00
2022-08-05T00:20:34.604Z,100.00
2022-08-05T00:23:12.439Z,100.00
2022-08-05T00:25:45.483Z,100.00
2022-08-05T00:28:12.786Z,100.00
2022-08-05T00:30:39.144Z,100.00
2022-08-05T00:33:07.747Z,100.00
2022-08-05T00:36:16.382Z,100.00
2022-08-05T00:38:40.653Z,100.00
2022-08-05T00:41:11.914Z,100.00
2022-08-05T00:43:47.018Z,100.00
2022-08-05T00:46:13.854Z,100.00
2022-08-05T00:48:50.456Z,100.00
2022-08-05T00:51:51.257Z,100.00
2022-08-05T00:54:04.801Z,100.00
2022-08-05T00:56:31.134Z,100.00
2022-08-05T00:58:57.481Z,100.00
2022-08-05T01:01:42.785Z,100.00
2022-08-05T01:04:14.121Z,100.00
2022-08-05T01:06:42.081Z,100.00
2022-08-05T01:09:13.094Z,100.00
2022-08-05T01:11:40.093Z,100.00
2022-08-05T01:14:15.613Z,100.00
2022-08-05T01:16:45.249Z,100.00
2022-08-05T01:20:01.118Z,100.00
2022-08-05T01:22:27.832Z,100.00
2022-08-05T01:24:57.688Z,100.00
2022-08-05T01:27:55.001Z,100.00
2022-08-05T01:30:34.262Z,100.00
2022-08-05T01:33:02.797Z,100.00
2022-08-05T01:35:51.805Z,100.00
2022-08-05T01:38:24.653Z,100.00
2022-08-05T01:40:55.384Z,100.00
2022-08-05T01:43:24.192Z,100.00
2022-08-05T01:45:56.499Z,100.00
2022-08-05T01:48:23.841Z,100.00
2022-08-05T01:50:51.528Z,100.00
2022-08-05T01:53:55.151Z,100.00
2022-08-05T01:56:09.248Z,100.00
2022-08-05T01:58:44.847Z,100.00
2022-08-05T02:01:13.277Z,100.00
2022-08-05T02:03:43.755Z,100.00
2022-08-05T02:06:33.631Z,100.00
2022-08-05T02:08:58.903Z,100.00
2022-08-05T02:11:32.919Z,100.00
2022-08-05T02:14:02.779Z,100.00
2022-08-05T02:16:38.817Z,100.00
2022-08-05T02:19:11.736Z,100.00
2022-08-05T02:21:46.631Z,100.00
2022-08-05T02:24:17.952Z,100.00
2022-08-05T02:26:54.643Z,100.00
2022-08-05T02:29:26.099Z,100.00
2022-08-05T02:32:09.901Z,100.00
2022-08-05T02:34:37.638Z,100.00
2022-08-05T02:37:09.316Z,100.00
2022-08-05T02:39:36.968Z,100.00
2022-08-05T02:42:08.580Z,100.00
2022-08-05T02:44:37.474Z,100.00
2022-08-05T02:47:05.700Z,100.00
2022-08-05T02:49:36.434Z,100.00
2022-08-05T02:52:05.297Z,100.00
2022-08-05T02:54:36.891Z,100.00
2022-08-05T02:57:10.259Z,100.00
2022-08-05T02:59:54.137Z,100.00
2022-08-05T03:02:22.952Z,100.00
2022-08-05T03:04:53.352Z,100.00
2022-08-05T03:07:30.874Z,100.00
2022-08-05T03:10:07.219Z,100.00
2022-08-05T03:12:34.513Z,100.00
2022-08-05T03:15:00.882Z,100.00
2022-08-05T03:17:28.307Z,100.00
2022-08-05T03:19:55.255Z,100.00
2022-08-05T03:22:32.354Z,100.00
2022-08-05T03:25:02.290Z,100.00
2022-08-05T03:28:00.153Z,100.00
2022-08-05T03:30:30.123Z,100.00
2022-08-05T03:33:01.070Z,100.00
2022-08-05T03:35:28.726Z,100.00
2022-08-05T03:37:58.374Z,100.00
2022-08-05T03:40:32.037Z,100.00
2022-08-05T03:42:59.298Z,100.00
2022-08-05T03:45:28.969Z,100.00
2022-08-05T03:47:57.215Z,100.00
2022-08-05T03:50:25.688Z,100.00
2022-08-05T03:54:59.071Z,100.00
2022-08-05T03:56:11.425Z,100.00
2022-08-05T03:58:41.110Z,100.00
2022-08-05T04:01:11.147Z,100.00
2022-08-05T04:03:40.194Z,100.00
2022-08-05T04:06:27.073Z,100.00
2022-08-05T04:08:54.466Z,100.00
2022-08-05T04:11:21.059Z,100.00
2022-08-05T04:13:53.323Z,100.00
2022-08-05T04:16:24.931Z,100.00
2022-08-05T04:18:57.862Z,100.00
2022-08-05T04:22:05.283Z,100.00
2022-08-05T04:24:18.789Z,100.00
2022-08-05T04:26:48.511Z,100.00
2022-08-05T04:29:14.882Z,100.00
2022-08-05T04:31:41.181Z,100.00
2022-08-05T04:34:31.846Z,100.00
2022-08-05T04:36:55.804Z,100.00
2022-08-05T04:39:22.615Z,100.00
2022-08-05T04:41:51.106Z,100.00
2022-08-05T04:44:24.495Z,100.00
2022-08-05T04:46:56.134Z,100.00
2022-08-05T04:49:24.911Z,100.00
2022-08-05T04:52:06.017Z,100.00
2022-08-05T04:54:34.323Z,100.00
2022-08-05T04:57:00.639Z,100.00
2022-08-05T04:59:39.261Z,100.00
2022-08-05T05:02:37.345Z,100.00
2022-08-05T05:05:02.334Z,100.00
2022-08-05T05:07:32.665Z,100.00
2022-08-05T05:10:05.250Z,100.00
2022-08-05T05:12:32.639Z,100.00
2022-08-05T05:14:59.024Z,100.00
2022-08-05T05:17:56.605Z,100.00
2022-08-05T05:20:22.796Z,100.00
2022-08-05T05:22:54.925Z,100.00
2022-08-05T05:25:21.248Z,100.00
2022-08-05T05:27:59.474Z,100.00
2022-08-05T05:30:30.900Z,100.00
2022-08-05T05:33:00.933Z,100.00
2022-08-05T05:35:29.194Z,100.00
2022-08-05T05:38:02.430Z,100.00
2022-08-05T05:40:32.093Z,100.00
2022-08-05T05:42:59.196Z,100.00
2022-08-05T05:45:26.056Z,100.00
2022-08-05T05:48:06.113Z,100.00
2022-08-05T05:50:34.114Z,100.00
2022-08-05T05:53:00.639Z,100.00
2022-08-05T05:55:52.097Z,100.00
2022-08-05T05:58:13.274Z,100.00
2022-08-05T06:00:40.603Z,100.00
2022-08-05T06:03:40.719Z,100.00
2022-08-05T06:05:58.584Z,100.00
2022-08-05T06:08:32.654Z,100.00
2022-08-05T06:10:59.521Z,100.00
2022-08-05T06:13:26.597Z,100.00
2022-08-05T06:16:31.534Z,100.00
2022-08-05T06:18:39.582Z,100.00
2022-08-05T06:21:07.878Z,100.00
2022-08-05T06:23:44.113Z,100.00
2022-08-05T06:26:13.670Z,100.00
2022-08-05T06:28:47.409Z,100.00
2022-08-05T06:31:17.936Z,100.00
2022-08-05T06:34:07.509Z,100.00
2022-08-05T06:36:53.675Z,100.00
2022-08-05T06:39:20.919Z,100.00
2022-08-05T06:41:49.333Z,100.00
2022-08-05T06:44:15.820Z,100.00
2022-08-05T06:46:44.171Z,100.00
2022-08-05T06:49:10.493Z,100.00
2022-08-05T06:51:40.789Z,100.00
2022-08-05T06:54:07.271Z,100.00
2022-08-05T06:56:35.214Z,100.00
2022-08-05T06:59:02.511Z,100.00
2022-08-05T07:01:32.679Z,100.00
2022-08-05T07:03:59.930Z,100.00
2022-08-05T07:06:27.621Z,100.00
2022-08-05T07:08:55.013Z,100.00
2022-08-05T07:11:22.545Z,100.00
2022-08-05T07:14:20.250Z,100.00
2022-08-05T07:18:02.353Z,100.00
2022-08-05T07:22:28.373Z,100.00
2022-08-05T07:24:56.641Z,100.00
2022-08-05T07:27:23.125Z,100.00
2022-08-05T07:30:22.876Z,100.00
2022-08-05T07:32:40.522Z,100.00
2022-08-05T07:36:04.714Z,100.00
2022-08-05T07:37:57.919Z,100.00
2022-08-05T07:40:31.653Z,100.00
2022-08-05T07:42:59.207Z,100.00
2022-08-05T07:45:56.598Z,100.00
2022-08-05T07:48:12.340Z,100.00
2022-08-05T07:50:39.744Z,100.00
2022-08-05T07:53:09.093Z,100.00
2022-08-05T07:56:05.324Z,100.00
2022-08-05T07:58:57.766Z,100.00
2022-08-05T08:01:12.561Z,100.00
2022-08-05T08:03:44.548Z,100.00
2022-08-05T08:06:11.422Z,100.00
2022-08-05T08:08:37.852Z,100.00
2022-08-05T08:11:04.372Z,100.00
2022-08-05T08:13:42.693Z,100.00
2022-08-05T08:16:50.137Z,100.00
2022-08-05T08:19:02.122Z,100.00
2022-08-05T08:21:28.533Z,100.00
2022-08-05T08:24:02.727Z,100.00
2022-08-05T08:26:31.424Z,100.00
2022-08-05T08:29:09.688Z,100.00
2022-08-05T08:31:48.266Z,100.00
2022-08-05T08:34:14.941Z,100.00
2022-08-05T08:36:47.694Z,100.00
2022-08-05T08:39:19.509Z,100.00
2022-08-05T08:41:52.244Z,100.00
2022-08-05T08:45:18.981Z,100.00
2022-08-05T08:47:47.061Z,100.00
2022-08-05T08:50:22.688Z,100.00
2022-08-05T08:52:52.912Z,100.00
2022-08-05T08:55:32.116Z,100.00
2022-08-05T08:58:06.957Z,100.00
2022-08-05T09:00:35.107Z,100.00
2022-08-05T09:03:02.354Z,100.00
2022-08-05T09:05:38.606Z,100.00
2022-08-05T09:08:15.080Z,100.00
2022-08-05T09:10:41.934Z,100.00
2022-08-05T09:13:16.337Z,100.00
2022-08-05T09:15:46.848Z,100.00
2022-08-05T09:18:13.611Z,100.00
2022-08-05T09:20:41.907Z,100.00
2022-08-05T09:23:19.541Z,100.00
2022-08-05T09:26:02.798Z,100.00
2022-08-05T09:28:32.615Z,100.00
2022-08-05T09:31:18.131Z,100.00
2022-08-05T09:33:52.982Z,100.00
2022-08-05T09:36:20.371Z,100.00
2022-08-05T09:39:00.279Z,100.00
2022-08-05T09:41:32.815Z,100.00
2022-08-05T09:44:04.606Z,100.00
2022-08-05T09:46:33.608Z,100.00
2022-08-05T09:49:07.955Z,100.00
2022-08-05T09:51:49.923Z,100.00
2022-08-05T09:54:29.109Z,100.00
2022-08-05T09:56:56.001Z,100.00
2022-08-05T09:59:24.344Z,100.00
2022-08-05T10:01:58.218Z,100.00
2022-08-05T10:04:34.959Z,100.00
2022-08-05T10:07:01.513Z,100.00
2022-08-05T10:09:45.401Z,100.00
2022-08-05T10:12:30.319Z,100.00
2022-08-05T10:15:16.907Z,100.00
2022-08-05T10:17:47.429Z,100.00
2022-08-05T10:20:23.391Z,100.00
2022-08-05T10:22:51.660Z,100.00
2022-08-05T10:25:19.030Z,100.00
2022-08-05T10:28:13.576Z,100.00
2022-08-05T10:32:47.906Z,100.00
2022-08-05T10:33:23.228Z,100.00
2022-08-05T10:35:59.202Z,100.00
2022-08-05T10:38:28.531Z,100.00
2022-08-05T10:41:00.715Z,100.00
2022-08-05T10:43:46.173Z,100.00
2022-08-05T10:46:16.227Z,100.00
2022-08-05T10:48:56.641Z,100.00
2022-08-05T10:51:28.481Z,100.00
2022-08-05T10:54:01.646Z,100.00
2022-08-05T10:56:43.550Z,100.00
2022-08-05T11:00:01.286Z,100.00
2022-08-05T11:02:06.724Z,100.00
2022-08-05T11:04:45.411Z,100.00
2022-08-05T11:07:15.367Z,100.00
2022-08-05T11:09:47.257Z,100.00
2022-08-05T11:12:32.640Z,100.00
2022-08-05T11:15:19.842Z,100.00
2022-08-05T11:18:11.599Z,100.00
2022-08-05T11:20:46.034Z,100.00
2022-08-05T11:23:57.695Z,100.00
2022-08-05T11:26:29.201Z,100.00
2022-08-05T11:29:06.920Z,100.00
2022-08-05T11:31:57.290Z,100.00
2022-08-05T11:34:37.160Z,100.00
2022-08-05T11:37:06.135Z,100.00
2022-08-05T11:39:55.322Z,100.00
2022-08-05T11:42:28.135Z,100.00
2022-08-05T11:45:00.771Z,100.00
2022-08-05T11:47:49.999Z,100.00
2022-08-05T11:50:14.452Z,100.00
2022-08-05T11:52:41.163Z,100.00
2022-08-05T11:55:10.878Z,100.00
2022-08-05T11:58:10.061Z,100.00
2022-08-05T12:00:31.786Z,100.00
2022-08-05T12:02:58.425Z,100.00
2022-08-05T12:05:36.434Z,100.00
2022-08-05T12:08:10.093Z,100.00
2022-08-05T12:10:45.232Z,100.00
2022-08-05T12:13:15.915Z,100.00
2022-08-05T12:15:44.664Z,100.00
2022-08-05T12:18:12.297Z,100.00
2022-08-05T12:20:39.360Z,100.00
2022-08-05T12:23:11.026Z,100.00
2022-08-05T12:25:50.507Z,100.00
2022-08-05T12:28:30.975Z,100.00
2022-08-05T12:30:57.904Z,100.00
2022-08-05T12:33:37.176Z,100.00
2022-08-05T12:36:09.455Z,100.00
2022-08-05T12:38:40.273Z,100.00
2022-08-05T12:41:13.443Z,100.00
2022-08-05T12:43:50.118Z,100.00
2022-08-05T12:46:28.114Z,100.00
2022-08-05T12:49:12.905Z,100.00
2022-08-05T12:52:13.456Z,100.00
2022-08-05T12:54:53.220Z,100.00
2022-08-05T12:57:19.733Z,100.00
2022-08-05T13:00:08.466Z,100.00
2022-08-05T13:02:40.963Z,100.00
2022-08-05T13:05:08.298Z,100.00
2022-08-05T13:10:25.630Z,100.00
2022-08-05T13:12:58.108Z,100.00
2022-08-05T13:15:42.117Z,100.00
2022-08-05T13:18:20.846Z,100.00
2022-08-05T13:20:48.951Z,100.00
2022-08-05T13:23:22.149Z,100.00
2022-08-05T13:25:58.829Z,100.00
2022-08-05T13:28:26.562Z,100.00
2022-08-05T13:30:53.404Z,100.00
2022-08-05T13:34:24.676Z,100.00
2022-08-05T13:36:06.833Z,100.00
2022-08-05T13:38:38.299Z,100.00
2022-08-05T13:41:09.288Z,100.00
2022-08-05T13:43:44.366Z,100.00
2022-08-05T13:46:12.970Z,100.00
2022-08-05T13:48:57.741Z,100.00
2022-08-05T13:51:40.209Z,100.00
2022-08-05T13:54:12.077Z,100.00
2022-08-05T13:56:39.493Z,100.00
2022-08-05T13:59:20.147Z,100.00
2022-08-05T14:01:57.589Z,100.00
2022-08-05T14:04:50.211Z,100.00
2022-08-05T14:07:25.838Z,100.00
2022-08-05T14:10:05.658Z,100.00
2022-08-05T14:12:34.903Z,100.00
2022-08-05T14:15:01.590Z,100.00
2022-08-05T14:17:47.946Z,100.00
2022-08-05T14:20:18.518Z,100.00
2022-08-05T14:22:50.125Z,100.00
2022-08-05T14:25:21.952Z,100.00
2022-08-05T14:27:49.429Z,100.00
2022-08-05T14:30:20.488Z,100.00
2022-08-05T14:32:48.660Z,100.00
2022-08-05T14:35:14.987Z,94.01
2022-08-05T14:37:45.322Z,86.07
2022-08-05T14:40:16.902Z,90.07
2022-08-05T14:42:43.480Z,99.65
2022-08-05T14:45:10.151Z,97.31
2022-08-05T14:48:02.797Z,87.53
2022-08-05T14:50:23.008Z,99.63
2022-08-05T14:52:57.083Z,100.00
2022-08-05T14:55:25.990Z,100.00
2022-08-05T14:58:11.372Z,85.29
2022-08-05T15:00:39.243Z,79.30
2022-08-05T15:03:25.448Z,86.06
2022-08-05T15:06:07.537Z,86.09
2022-08-05T15:08:59.261Z,100.00
2022-08-05T15:11:24.530Z,100.00
2022-08-05T15:14:10.912Z,100.00
2022-08-05T15:16:46.734Z,95.44
2022-08-05T15:19:14.586Z,85.98
2022-08-05T15:21:50.303Z,96.93
2022-08-05T15:24:17.584Z,100.00
2022-08-05T15:26:46.448Z,96.85
2022-08-05T15:29:15.019Z,100.00
2022-08-05T15:31:41.544Z,100.00
2022-08-05T15:34:31.445Z,100.00
2022-08-05T15:36:54.352Z,100.00
2022-08-05T15:41:03.534Z,100.00
2022-08-05T15:42:50.369Z,100.00
2022-08-05T15:44:54.891Z,100.00
2022-08-05T15:47:22.408Z,100.00
2022-08-05T15:49:56.886Z,100.00
2022-08-05T15:52:51.575Z,100.00
2022-08-05T15:55:16.186Z,100.00
2022-08-05T15:57:42.964Z,100.00
2022-08-05T16:00:11.791Z,100.00
2022-08-05T16:02:38.267Z,100.00
2022-08-05T16:05:05.401Z,100.00
2022-08-05T16:07:36.105Z,100.00
2022-08-05T16:10:02.505Z,100.00
2022-08-05T16:12:28.800Z,100.00
2022-08-05T16:14:55.125Z,100.00
2022-08-05T16:17:22.707Z,100.00
2022-08-05T16:20:04.340Z,100.00
2022-08-05T16:22:34.252Z,100.00
2022-08-05T16:25:01.051Z,100.00
2022-08-05T16:28:00.179Z,100.00
2022-08-05T16:30:26.732Z,100.00
2022-08-05T16:32:55.397Z,100.00
2022-08-05T16:35:27.711Z,100.00
2022-08-05T16:38:15.778Z,100.00
2022-08-05T16:40:51.595Z,100.00
2022-08-05T16:43:25.390Z,100.00
2022-08-05T16:46:04.415Z,100.00
2022-08-05T16:48:35.331Z,100.00
2022-08-05T16:51:02.188Z,100.00
2022-08-05T16:54:04.706Z,100.00
2022-08-05T16:56:22.338Z,100.00
2022-08-05T16:58:49.822Z,100.00
2022-08-05T17:01:16.400Z,100.00
2022-08-05T17:03:45.247Z,100.00
2022-08-05T17:06:11.605Z,100.00
2022-08-05T17:08:53.374Z,100.00
2022-08-05T17:11:23.899Z,100.00
2022-08-05T17:14:00.482Z,100.00
2022-08-05T17:16:36.779Z,100.00
2022-08-05T17:19:07.750Z,100.00
2022-08-05T17:21:36.863Z,100.00
2022-08-05T17:24:18.438Z,100.00
2022-08-05T17:26:51.106Z,100.00
2022-08-05T17:29:17.676Z,100.00
2022-08-05T17:31:58.532Z,100.00
2022-08-05T17:34:29.998Z,100.00
2022-08-05T17:36:58.723Z,100.00
2022-08-05T17:39:33.229Z,100.00
2022-08-05T17:42:20.438Z,100.00
2022-08-05T17:44:50.464Z,100.00
2022-08-05T17:47:21.732Z,100.00
2022-08-05T17:49:52.007Z,100.00
2022-08-05T17:52:30.151Z,100.00
2022-08-05T17:54:56.484Z,100.00
2022-08-05T17:57:22.906Z,100.00
2022-08-05T18:00:03.802Z,100.00
2022-08-05T18:02:32.881Z,100.00
2022-08-05T18:05:02.775Z,100.00
2022-08-05T18:07:32.842Z,100.00
2022-08-05T18:10:10.515Z,100.00
2022-08-05T18:12:37.444Z,100.00
2022-08-05T18:15:04.041Z,100.00
2022-08-05T18:18:01.504Z,100.00
2022-08-05T18:20:19.072Z,100.00
2022-08-05T18:22:53.850Z,100.00
2022-08-05T18:25:21.150Z,100.00
2022-08-05T18:27:52.212Z,100.00
2022-08-05T18:30:19.097Z,100.00
2022-08-05T18:32:53.352Z,100.00
2022-08-05T18:35:28.315Z,100.00
2022-08-05T18:38:12.988Z,100.00
2022-08-05T18:41:54.127Z,100.00
2022-08-05T18:43:31.428Z,100.00
2022-08-05T18:46:04.333Z,100.00
2022-08-05T18:48:33.346Z,100.00
2022-08-05T18:52:04.359Z,100.00
2022-08-05T18:54:05.520Z,100.00
2022-08-05T18:56:32.044Z,100.00
2022-08-05T18:59:00.798Z,100.00
2022-08-05T19:01:47.195Z,100.00
2022-08-05T19:04:14.126Z,100.00
2022-08-05T19:06:50.597Z,100.00
2022-08-05T19:09:16.949Z,100.00
2022-08-05T19:12:01.140Z,100.00
2022-08-05T19:14:59.466Z,100.00
2022-08-05T19:17:16.724Z,100.00
2022-08-05T19:19:47.060Z,100.00
2022-08-05T19:22:17.195Z,100.00
2022-08-05T19:24:54.609Z,100.00
2022-08-05T19:27:23.162Z,100.00
2022-08-05T19:29:49.998Z,100.00
2022-08-05T19:32:16.345Z,100.00
2022-08-05T19:34:55.175Z,100.00
2022-08-05T19:37:29.894Z,100.00
2022-08-05T19:40:01.881Z,100.00
2022-08-05T19:42:35.051Z,100.00
2022-08-05T19:45:02.843Z,100.00
2022-08-05T19:47:32.649Z,100.00
2022-08-05T19:50:00.965Z,100.00
2022-08-05T19:52:40.532Z,100.00
2022-08-05T19:56:11.330Z,100.00
2022-08-05T19:58:14.476Z,100.00
2022-08-05T20:00:40.372Z,100.00
2022-08-05T20:03:09.001Z,100.00
2022-08-05T20:05:49.792Z,100.00
2022-08-05T20:08:17.047Z,100.00
2022-08-05T20:10:43.447Z,100.00
2022-08-05T20:13:10.845Z,100.00
2022-08-05T20:15:51.568Z,100.00
2022-08-05T20:18:33.552Z,100.00
2022-08-05T20:21:01.653Z,100.00
2022-08-05T20:23:39.678Z,100.00
2022-08-05T20:26:17.582Z,100.00
2022-08-05T20:28:44.981Z,100.00
2022-08-05T20:31:11.307Z,100.00
2022-08-05T20:33:37.620Z,100.00
2022-08-05T20:36:08.864Z,100.00
2022-08-05T20:38:37.398Z,100.00
2022-08-05T20:41:10.059Z,100.00
2022-08-05T20:43:59.155Z,100.00
2022-08-05T20:46:25.020Z,100.00
2022-08-05T20:48:51.925Z,100.00
2022-08-05T20:51:18.244Z,100.00
2022-08-05T20:53:55.197Z,100.00
2022-08-05T20:56:28.885Z,100.00
2022-08-05T20:59:00.091Z,100.00
2022-08-05T21:01:38.437Z,100.00
2022-08-05T21:04:07.201Z,100.00
2022-08-05T21:06:36.725Z,100.00
2022-08-05T21:09:04.674Z,100.00
2022-08-05T21:12:10.869Z,100.00
2022-08-05T21:14:18.272Z,100.00
2022-08-05T21:16:45.308Z,100.00
2022-08-05T21:19:11.905Z,100.00
2022-08-05T21:21:43.754Z,100.00
2022-08-05T21:24:17.061Z,100.00
2022-08-05T21:26:53.679Z,100.00
2022-08-05T21:29:26.657Z,100.00
2022-08-05T21:31:58.776Z,100.00
2022-08-05T21:34:25.089Z,100.00
2022-08-05T21:36:51.488Z,100.00
2022-08-05T21:39:26.923Z,100.00
2022-08-05T21:42:01.515Z,100.00
2022-08-05T21:44:28.635Z,100.00
2022-08-05T21:46:58.035Z,100.00
2022-08-05T21:49:58.721Z,100.00
2022-08-05T21:52:21.529Z,100.00
2022-08-05T21:54:55.417Z,100.00
2022-08-05T21:57:31.657Z,100.00
2022-08-05T22:00:07.100Z,100.00
2022-08-05T22:02:37.980Z,100.00
2022-08-05T22:05:04.791Z,100.00
2022-08-05T22:07:54.218Z,100.00
2022-08-05T22:10:18.143Z,100.00
2022-08-05T22:12:53.644Z,100.00
2022-08-05T22:16:01.028Z,100.00
2022-08-05T22:18:06.769Z,100.00
2022-08-05T22:20:35.133Z,100.00
2022-08-05T22:23:23.852Z,100.00
2022-08-05T22:26:11.628Z,100.00
2022-08-05T22:28:41.269Z,100.00
2022-08-05T22:31:07.589Z,100.00
2022-08-05T22:33:55.688Z,100.00
2022-08-05T22:36:23.818Z,100.00
2022-08-05T22:38:50.334Z,100.00
2022-08-05T22:42:05.033Z,100.00
2022-08-05T22:44:03.912Z,100.00
2022-08-05T22:46:30.696Z,100.00
2022-08-05T22:48:57.009Z,100.00
2022-08-05T22:52:05.388Z,100.00
2022-08-05T22:54:09.745Z,100.00
2022-08-05T22:56:36.045Z,100.00
2022-08-05T22:59:45.962Z,100.00
2022-08-05T23:02:04.052Z,100.00
2022-08-05T23:04:31.733Z,100.00
2022-08-05T23:06:58.458Z,100.00
2022-08-05T23:09:28.103Z,100.00
2022-08-05T23:12:11.786Z,100.00
2022-08-05T23:14:38.082Z,100.00
2022-08-05T23:17:23.945Z,100.00
2022-08-05T23:19:56.077Z,100.00
2022-08-05T23:22:27.114Z,100.00
2022-08-05T23:24:54.494Z,100.00
2022-08-05T23:27:21.164Z,100.00
2022-08-05T23:29:49.315Z,100.00
2022-08-05T23:32:17.033Z,100.00
2022-08-05T23:34:49.340Z,100.00
2022-08-05T23:37:17.095Z,100.00
2022-08-05T23:39:53.717Z,100.00
2022-08-05T23:42:23.603Z,100.00
2022-08-05T23:44:55.852Z,100.00
2022-08-05T23:47:22.177Z,100.00
2022-08-05T23:49:52.015Z,100.00
2022-08-05T23:52:36.061Z,100.00
2022-08-05T23:55:09.437Z,100.00
2022-08-05T23:57:37.307Z,100.00
